Terminal Aerodrome Forecast
Issued by NWS Wilmington, OH

Current Version | Previous Version | Graphics & Text | Print | Product List | Glossary Off
Versions: 1 2 3 4 5 6 7 8 9 10 11 12 13 14 15 16 17 18 19 20 21 22 23

646
FTUS41 KILN 271733
TAFILN
TAF
KILN 271733Z 2718/2818 VRB04KT P6SM SCT035
      TEMPO 2718/2722 BKN035
     FM280000 VRB04KT P6SM SCT120 BKN200
     FM280800 VRB03KT 5SM BR BKN150
     FM281200 VRB04KT P6SM VCTS BKN040CB BKN150
     FM281400 VRB04KT 5SM -SHRA BR VCTS BKN030CB=

USA.gov is the U.S. government's official web portal to all federal, state and local government web resources and services.